sensor_id;sensor_type;location;lat;lon;timestamp;P1;durP1;ratioP1;P2;durP2;ratioP2
64282;SDS011;50497;50.720;-2.084;2023-09-18T01:15:17;28.65;;;10.32;;
64282;SDS011;50497;50.720;-2.084;2023-09-18T01:17:48;21.23;;;8.10;;
64282;SDS011;50497;50.720;-2.084;2023-09-18T01:20:13;23.73;;;9.95;;
64282;SDS011;50497;50.720;-2.084;2023-09-18T01:22:39;25.30;;;10.65;;
64282;SDS011;50497;50.720;-2.084;2023-09-18T01:25:04;29.98;;;11.38;;
64282;SDS011;50497;50.720;-2.084;2023-09-18T01:27:31;41.97;;;15.27;;
64282;SDS011;50497;50.720;-2.084;2023-09-18T01:29:57;35.92;;;15.20;;
64282;SDS011;50497;50.720;-2.084;2023-09-18T01:32:23;30.88;;;13.00;;
64282;SDS011;50497;50.720;-2.084;2023-09-18T01:34:52;35.65;;;14.95;;
64282;SDS011;50497;50.720;-2.084;2023-09-18T01:37:20;45.53;;;15.95;;
64282;SDS011;50497;50.720;-2.084;2023-09-18T01:39:48;41.70;;;15.30;;
64282;SDS011;50497;50.720;-2.084;2023-09-18T01:42:15;39.67;;;14.95;;
64282;SDS011;50497;50.720;-2.084;2023-09-18T01:44:41;44.80;;;16.42;;
64282;SDS011;50497;50.720;-2.084;2023-09-18T01:47:08;43.22;;;16.00;;
64282;SDS011;50497;50.720;-2.084;2023-09-18T01:49:38;49.92;;;16.95;;
64282;SDS011;50497;50.720;-2.084;2023-09-18T01:52:05;41.70;;;16.13;;
64282;SDS011;50497;50.720;-2.084;2023-09-18T01:54:31;34.97;;;14.90;;
64282;SDS011;50497;50.720;-2.084;2023-09-18T01:56:57;54.58;;;17.58;;
64282;SDS011;50497;50.720;-2.084;2023-09-18T01:59:23;34.78;;;14.75;;
64282;SDS011;50497;50.720;-2.084;2023-09-18T02:01:49;42.33;;;16.52;;
64282;SDS011;50497;50.720;-2.084;2023-09-18T02:06:40;45.83;;;17.60;;
64282;SDS011;50497;50.720;-2.084;2023-09-18T02:09:06;42.33;;;18.20;;
64282;SDS011;50497;50.720;-2.084;2023-09-18T02:11:36;47.47;;;19.05;;
64282;SDS011;50497;50.720;-2.084;2023-09-18T02:14:03;43.90;;;17.02;;
64282;SDS011;50497;50.720;-2.084;2023-09-18T02:16:29;48.88;;;18.25;;
64282;SDS011;50497;50.720;-2.084;2023-09-18T02:18:54;44.60;;;16.73;;
64282;SDS011;50497;50.720;-2.084;2023-09-18T02:21:23;36.53;;;15.55;;
64282;SDS011;50497;50.720;-2.084;2023-09-18T02:23:51;41.95;;;17.05;;
64282;SDS011;50497;50.720;-2.084;2023-09-18T02:26:18;39.70;;;15.43;;
64282;SDS011;50497;50.720;-2.084;2023-09-18T02:28:44;38.90;;;16.80;;
64282;SDS011;50497;50.720;-2.084;2023-09-18T02:31:09;45.60;;;17.75;;
64282;SDS011;50497;50.720;-2.084;2023-09-18T02:33:35;48.22;;;17.90;;
64282;SDS011;50497;50.720;-2.084;2023-09-18T02:45:43;47.97;;;13.68;;
64282;SDS011;50497;50.720;-2.084;2023-09-18T02:48:10;36.33;;;14.07;;
64282;SDS011;50497;50.720;-2.084;2023-09-18T02:50:35;50.25;;;16.88;;
64282;SDS011;50497;50.720;-2.084;2023-09-18T02:53:01;56.92;;;17.65;;
64282;SDS011;50497;50.720;-2.084;2023-09-18T02:55:26;53.47;;;21.80;;
64282;SDS011;50497;50.720;-2.084;2023-09-18T02:57:52;32.88;;;15.35;;
64282;SDS011;50497;50.720;-2.084;2023-09-18T03:00:17;33.20;;;14.57;;
64282;SDS011;50497;50.720;-2.084;2023-09-18T03:02:43;38.33;;;14.95;;
64282;SDS011;50497;50.720;-2.084;2023-09-18T03:05:09;28.95;;;11.88;;
64282;SDS011;50497;50.720;-2.084;2023-09-18T03:07:34;40.75;;;14.48;;
64282;SDS011;50497;50.720;-2.084;2023-09-18T03:09:59;25.67;;;11.43;;
64282;SDS011;50497;50.720;-2.084;2023-09-18T03:12:25;49.40;;;15.02;;
64282;SDS011;50497;50.720;-2.084;2023-09-18T03:14:50;20.98;;;10.40;;
64282;SDS011;50497;50.720;-2.084;2023-09-18T03:17:16;23.00;;;10.13;;
64282;SDS011;50497;50.720;-2.084;2023-09-18T03:19:41;22.73;;;9.70;;
64282;SDS011;50497;50.720;-2.084;2023-09-18T03:22:07;26.20;;;10.52;;
64282;SDS011;50497;50.720;-2.084;2023-09-18T03:24:32;20.73;;;9.10;;
64282;SDS011;50497;50.720;-2.084;2023-09-18T03:26:57;21.02;;;9.13;;
64282;SDS011;50497;50.720;-2.084;2023-09-18T03:29:22;20.52;;;8.98;;
64282;SDS011;50497;50.720;-2.084;2023-09-18T03:31:48;17.40;;;8.18;;
64282;SDS011;50497;50.720;-2.084;2023-09-18T03:34:13;19.05;;;8.32;;
64282;SDS011;50497;50.720;-2.084;2023-09-18T03:36:39;86.85;;;12.23;;
64282;SDS011;50497;50.720;-2.084;2023-09-18T03:39:04;21.17;;;8.20;;
64282;SDS011;50497;50.720;-2.084;2023-09-18T03:41:30;36.38;;;10.13;;
64282;SDS011;50497;50.720;-2.084;2023-09-18T03:43:59;43.28;;;11.10;;
64282;SDS011;50497;50.720;-2.084;2023-09-18T03:46:25;15.25;;;7.28;;
64282;SDS011;50497;50.720;-2.084;2023-09-18T03:48:51;12.85;;;6.32;;
64282;SDS011;50497;50.720;-2.084;2023-09-18T03:51:16;14.30;;;6.68;;
64282;SDS011;50497;50.720;-2.084;2023-09-18T03:53:43;17.98;;;7.78;;
64282;SDS011;50497;50.720;-2.084;2023-09-18T03:56:09;0.88;;;0.47;;
64282;SDS011;50497;50.720;-2.084;2023-09-18T03:58:34;10.10;;;9.38;;
64282;SDS011;50497;50.720;-2.084;2023-09-18T04:01:00;1.20;;;1.10;;
64282;SDS011;50497;50.720;-2.084;2023-09-18T04:03:26;4.10;;;3.83;;
64282;SDS011;50497;50.720;-2.084;2023-09-18T04:05:51;7.13;;;6.55;;
64282;SDS011;50497;50.720;-2.084;2023-09-18T04:08:16;4.70;;;2.45;;
64282;SDS011;50497;50.720;-2.084;2023-09-18T04:10:42;7.00;;;6.40;;
64282;SDS011;50497;50.720;-2.084;2023-09-18T04:13:08;5.43;;;2.80;;
64282;SDS011;50497;50.720;-2.084;2023-09-18T04:15:34;0.00;;;0.00;;
64282;SDS011;50497;50.720;-2.084;2023-09-18T04:18:02;1.45;;;0.80;;
64282;SDS011;50497;50.720;-2.084;2023-09-18T04:20:31;1.85;;;1.23;;
64282;SDS011;50497;50.720;-2.084;2023-09-18T04:25:58;0.10;;;0.10;;
64282;SDS011;50497;50.720;-2.084;2023-09-18T04:28:24;0.32;;;0.20;;
64282;SDS011;50497;50.720;-2.084;2023-09-18T04:30:49;0.00;;;0.00;;
64282;SDS011;50497;50.720;-2.084;2023-09-18T04:33:15;0.30;;;0.30;;
64282;SDS011;50497;50.720;-2.084;2023-09-18T04:35:41;0.20;;;0.10;;
64282;SDS011;50497;50.720;-2.084;2023-09-18T04:38:06;2.63;;;2.05;;
64282;SDS011;50497;50.720;-2.084;2023-09-18T04:40:33;0.10;;;0.05;;
64282;SDS011;50497;50.720;-2.084;2023-09-18T04:45:25;0.40;;;0.40;;
64282;SDS011;50497;50.720;-2.084;2023-09-18T04:47:51;1.10;;;0.85;;
64282;SDS011;50497;50.720;-2.084;2023-09-18T04:50:16;1.05;;;0.70;;
64282;SDS011;50497;50.720;-2.084;2023-09-18T04:52:42;0.10;;;0.10;;
64282;SDS011;50497;50.720;-2.084;2023-09-18T04:57:33;0.30;;;0.30;;
64282;SDS011;50497;50.720;-2.084;2023-09-18T04:59:59;2.50;;;1.60;;
64282;SDS011;50497;50.720;-2.084;2023-09-18T05:02:25;0.40;;;0.20;;
64282;SDS011;50497;50.720;-2.084;2023-09-18T05:04:50;2.92;;;1.48;;
64282;SDS011;50497;50.720;-2.084;2023-09-18T05:07:16;1.45;;;0.43;;
64282;SDS011;50497;50.720;-2.084;2023-09-18T05:09:42;0.10;;;0.10;;
64282;SDS011;50497;50.720;-2.084;2023-09-18T05:12:08;0.10;;;0.10;;
64282;SDS011;50497;50.720;-2.084;2023-09-18T05:14:47;5.24;;;3.22;;
64282;SDS011;50497;50.720;-2.084;2023-09-18T05:17:14;0.00;;;0.00;;
64282;SDS011;50497;50.720;-2.084;2023-09-18T05:19:41;6.60;;;6.22;;
64282;SDS011;50497;50.720;-2.084;2023-09-18T05:22:07;15.45;;;13.88;;
64282;SDS011;50497;50.720;-2.084;2023-09-18T05:24:35;15.07;;;6.00;;
64282;SDS011;50497;50.720;-2.084;2023-09-18T05:27:01;17.55;;;6.20;;
64282;SDS011;50497;50.720;-2.084;2023-09-18T05:29:27;10.82;;;4.50;;
64282;SDS011;50497;50.720;-2.084;2023-09-18T05:31:52;14.45;;;4.88;;
64282;SDS011;50497;50.720;-2.084;2023-09-18T05:34:18;10.60;;;4.57;;
64282;SDS011;50497;50.720;-2.084;2023-09-18T05:36:43;10.32;;;4.68;;
64282;SDS011;50497;50.720;-2.084;2023-09-18T05:39:08;0.00;;;0.00;;
64282;SDS011;50497;50.720;-2.084;2023-09-18T05:41:37;0.00;;;0.00;;
64282;SDS011;50497;50.720;-2.084;2023-09-18T05:44:03;0.10;;;0.10;;
64282;SDS011;50497;50.720;-2.084;2023-09-18T05:46:30;0.00;;;0.00;;
64282;SDS011;50497;50.720;-2.084;2023-09-18T05:48:55;5.57;;;3.85;;
64282;SDS011;50497;50.720;-2.084;2023-09-18T05:51:22;11.43;;;7.47;;
64282;SDS011;50497;50.720;-2.084;2023-09-18T05:53:47;5.15;;;4.30;;
64282;SDS011;50497;50.720;-2.084;2023-09-18T05:56:13;1.10;;;0.43;;
64282;SDS011;50497;50.720;-2.084;2023-09-18T05:58:39;2.20;;;1.75;;
64282;SDS011;50497;50.720;-2.084;2023-09-18T06:01:05;0.47;;;0.45;;
64282;SDS011;50497;50.720;-2.084;2023-09-18T06:03:32;0.10;;;0.10;;
64282;SDS011;50497;50.720;-2.084;2023-09-18T06:06:00;0.10;;;0.05;;
64282;SDS011;50497;50.720;-2.084;2023-09-18T06:08:29;0.75;;;0.45;;
64282;SDS011;50497;50.720;-2.084;2023-09-18T06:10:55;0.35;;;0.28;;
64282;SDS011;50497;50.720;-2.084;2023-09-18T06:13:21;0.43;;;0.22;;
64282;SDS011;50497;50.720;-2.084;2023-09-18T06:15:49;1.40;;;1.27;;
64282;SDS011;50497;50.720;-2.084;2023-09-18T06:18:15;0.88;;;0.70;;
64282;SDS011;50497;50.720;-2.084;2023-09-18T06:20:41;1.23;;;0.70;;
64282;SDS011;50497;50.720;-2.084;2023-09-18T06:23:08;4.80;;;2.60;;
64282;SDS011;50497;50.720;-2.084;2023-09-18T06:25:34;0.20;;;0.20;;
64282;SDS011;50497;50.720;-2.084;2023-09-18T06:27:59;4.70;;;3.30;;
64282;SDS011;50497;50.720;-2.084;2023-09-18T06:30:28;3.38;;;2.03;;
64282;SDS011;50497;50.720;-2.084;2023-09-18T06:32:56;3.45;;;2.10;;
64282;SDS011;50497;50.720;-2.084;2023-09-18T06:35:25;1.75;;;1.35;;
64282;SDS011;50497;50.720;-2.084;2023-09-18T06:37:50;1.33;;;0.75;;
64282;SDS011;50497;50.720;-2.084;2023-09-18T06:40:16;5.65;;;3.78;;
64282;SDS011;50497;50.720;-2.084;2023-09-18T06:42:42;0.68;;;0.68;;
64282;SDS011;50497;50.720;-2.084;2023-09-18T06:45:08;3.60;;;2.88;;
64282;SDS011;50497;50.720;-2.084;2023-09-18T06:47:33;5.35;;;2.92;;
64282;SDS011;50497;50.720;-2.084;2023-09-18T06:49:59;8.00;;;4.35;;
64282;SDS011;50497;50.720;-2.084;2023-09-18T06:52:25;7.53;;;4.38;;
64282;SDS011;50497;50.720;-2.084;2023-09-18T06:54:53;8.25;;;5.10;;
64282;SDS011;50497;50.720;-2.084;2023-09-18T06:57:18;9.43;;;4.18;;
64282;SDS011;50497;50.720;-2.084;2023-09-18T06:59:46;6.22;;;2.15;;
64282;SDS011;50497;50.720;-2.084;2023-09-18T07:02:11;6.03;;;3.13;;
64282;SDS011;50497;50.720;-2.084;2023-09-18T07:04:40;9.88;;;4.13;;
64282;SDS011;50497;50.720;-2.084;2023-09-18T07:07:10;5.68;;;3.17;;
64282;SDS011;50497;50.720;-2.084;2023-09-18T07:09:39;8.20;;;3.30;;
64282;SDS011;50497;50.720;-2.084;2023-09-18T07:12:06;0.00;;;0.00;;
64282;SDS011;50497;50.720;-2.084;2023-09-18T07:14:32;0.10;;;0.10;;
64282;SDS011;50497;50.720;-2.084;2023-09-18T07:16:57;0.10;;;0.10;;
64282;SDS011;50497;50.720;-2.084;2023-09-18T07:19:24;0.00;;;0.00;;
64282;SDS011;50497;50.720;-2.084;2023-09-18T07:21:49;0.00;;;0.00;;
64282;SDS011;50497;50.720;-2.084;2023-09-18T07:24:14;0.00;;;0.00;;
64282;SDS011;50497;50.720;-2.084;2023-09-18T07:26:43;0.00;;;0.00;;
64282;SDS011;50497;50.720;-2.084;2023-09-18T07:29:09;0.00;;;0.00;;
64282;SDS011;50497;50.720;-2.084;2023-09-18T07:31:35;0.00;;;0.00;;
64282;SDS011;50497;50.720;-2.084;2023-09-18T07:34:01;0.00;;;0.00;;
64282;SDS011;50497;50.720;-2.084;2023-09-18T07:36:28;0.00;;;0.00;;
64282;SDS011;50497;50.720;-2.084;2023-09-18T07:38:54;0.00;;;0.00;;
64282;SDS011;50497;50.720;-2.084;2023-09-18T07:41:21;0.00;;;0.00;;
64282;SDS011;50497;50.720;-2.084;2023-09-18T07:43:47;0.00;;;0.00;;
64282;SDS011;50497;50.720;-2.084;2023-09-18T07:46:12;0.00;;;0.00;;
64282;SDS011;50497;50.720;-2.084;2023-09-18T07:48:38;0.00;;;0.00;;
64282;SDS011;50497;50.720;-2.084;2023-09-18T07:51:03;0.00;;;0.00;;
64282;SDS011;50497;50.720;-2.084;2023-09-18T07:53:29;0.00;;;0.00;;
64282;SDS011;50497;50.720;-2.084;2023-09-18T07:55:55;0.00;;;0.00;;
64282;SDS011;50497;50.720;-2.084;2023-09-18T07:58:22;0.00;;;0.00;;
64282;SDS011;50497;50.720;-2.084;2023-09-18T08:00:47;0.10;;;0.10;;
64282;SDS011;50497;50.720;-2.084;2023-09-18T08:03:13;0.00;;;0.00;;
64282;SDS011;50497;50.720;-2.084;2023-09-18T08:05:39;0.00;;;0.00;;
64282;SDS011;50497;50.720;-2.084;2023-09-18T08:08:05;0.00;;;0.00;;
64282;SDS011;50497;50.720;-2.084;2023-09-18T08:10:30;0.00;;;0.00;;
64282;SDS011;50497;50.720;-2.084;2023-09-18T08:12:56;0.00;;;0.00;;
64282;SDS011;50497;50.720;-2.084;2023-09-18T08:15:21;0.00;;;0.00;;
64282;SDS011;50497;50.720;-2.084;2023-09-18T08:17:47;0.00;;;0.00;;
64282;SDS011;50497;50.720;-2.084;2023-09-18T08:20:14;0.00;;;0.00;;
64282;SDS011;50497;50.720;-2.084;2023-09-18T08:22:40;0.00;;;0.00;;
64282;SDS011;50497;50.720;-2.084;2023-09-18T08:25:06;0.00;;;0.00;;
64282;SDS011;50497;50.720;-2.084;2023-09-18T08:27:36;0.00;;;0.00;;
64282;SDS011;50497;50.720;-2.084;2023-09-18T08:30:06;0.00;;;0.00;;
64282;SDS011;50497;50.720;-2.084;2023-09-18T08:32:34;0.00;;;0.00;;
64282;SDS011;50497;50.720;-2.084;2023-09-18T08:35:00;0.00;;;0.00;;
64282;SDS011;50497;50.720;-2.084;2023-09-18T08:37:27;0.00;;;0.00;;
64282;SDS011;50497;50.720;-2.084;2023-09-18T08:39:53;0.00;;;0.00;;
64282;SDS011;50497;50.720;-2.084;2023-09-18T08:42:19;0.00;;;0.00;;
64282;SDS011;50497;50.720;-2.084;2023-09-18T08:44:48;0.00;;;0.00;;
64282;SDS011;50497;50.720;-2.084;2023-09-18T08:47:16;0.00;;;0.00;;
64282;SDS011;50497;50.720;-2.084;2023-09-18T08:49:43;0.00;;;0.00;;
64282;SDS011;50497;50.720;-2.084;2023-09-18T08:52:11;0.00;;;0.00;;
64282;SDS011;50497;50.720;-2.084;2023-09-18T08:54:37;0.00;;;0.00;;
64282;SDS011;50497;50.720;-2.084;2023-09-18T08:57:03;0.00;;;0.00;;
64282;SDS011;50497;50.720;-2.084;2023-09-18T08:59:32;0.00;;;0.00;;
64282;SDS011;50497;50.720;-2.084;2023-09-18T09:01:58;0.00;;;0.00;;
64282;SDS011;50497;50.720;-2.084;2023-09-18T09:04:24;0.00;;;0.00;;
64282;SDS011;50497;50.720;-2.084;2023-09-18T09:06:49;0.00;;;0.00;;
64282;SDS011;50497;50.720;-2.084;2023-09-18T09:09:15;0.00;;;0.00;;
64282;SDS011;50497;50.720;-2.084;2023-09-18T09:11:47;0.00;;;0.00;;
64282;SDS011;50497;50.720;-2.084;2023-09-18T09:14:14;0.00;;;0.00;;
64282;SDS011;50497;50.720;-2.084;2023-09-18T09:16:48;0.10;;;0.10;;
64282;SDS011;50497;50.720;-2.084;2023-09-18T09:19:17;0.00;;;0.00;;
64282;SDS011;50497;50.720;-2.084;2023-09-18T09:21:44;0.00;;;0.00;;
64282;SDS011;50497;50.720;-2.084;2023-09-18T09:24:10;0.05;;;0.05;;
64282;SDS011;50497;50.720;-2.084;2023-09-18T09:26:39;0.10;;;0.10;;
64282;SDS011;50497;50.720;-2.084;2023-09-18T09:29:18;0.00;;;0.00;;
64282;SDS011;50497;50.720;-2.084;2023-09-18T09:31:46;0.00;;;0.00;;
64282;SDS011;50497;50.720;-2.084;2023-09-18T09:34:12;0.00;;;0.00;;
64282;SDS011;50497;50.720;-2.084;2023-09-18T09:36:56;0.00;;;0.00;;
64282;SDS011;50497;50.720;-2.084;2023-09-18T09:39:22;0.00;;;0.00;;
64282;SDS011;50497;50.720;-2.084;2023-09-18T09:41:53;0.00;;;0.00;;
64282;SDS011;50497;50.720;-2.084;2023-09-18T09:44:18;0.00;;;0.00;;
64282;SDS011;50497;50.720;-2.084;2023-09-18T09:46:48;0.00;;;0.00;;
64282;SDS011;50497;50.720;-2.084;2023-09-18T09:49:16;0.00;;;0.00;;
64282;SDS011;50497;50.720;-2.084;2023-09-18T09:51:44;0.00;;;0.00;;
64282;SDS011;50497;50.720;-2.084;2023-09-18T09:54:10;0.00;;;0.00;;
64282;SDS011;50497;50.720;-2.084;2023-09-18T09:56:46;0.00;;;0.00;;
64282;SDS011;50497;50.720;-2.084;2023-09-18T09:59:15;0.00;;;0.00;;
64282;SDS011;50497;50.720;-2.084;2023-09-18T10:01:42;0.00;;;0.00;;
64282;SDS011;50497;50.720;-2.084;2023-09-18T10:06:36;0.00;;;0.00;;
64282;SDS011;50497;50.720;-2.084;2023-09-18T10:09:04;0.00;;;0.00;;
64282;SDS011;50497;50.720;-2.084;2023-09-18T10:11:33;0.00;;;0.00;;
64282;SDS011;50497;50.720;-2.084;2023-09-18T10:14:04;0.00;;;0.00;;
64282;SDS011;50497;50.720;-2.084;2023-09-18T10:16:36;0.00;;;0.00;;
64282;SDS011;50497;50.720;-2.084;2023-09-18T10:21:57;0.00;;;0.00;;
64282;SDS011;50497;50.720;-2.084;2023-09-18T10:24:33;0.03;;;0.03;;
64282;SDS011;50497;50.720;-2.084;2023-09-18T10:27:02;0.00;;;0.00;;
64282;SDS011;50497;50.720;-2.084;2023-09-18T10:29:29;0.00;;;0.00;;
64282;SDS011;50497;50.720;-2.084;2023-09-18T10:31:55;0.10;;;0.10;;
64282;SDS011;50497;50.720;-2.084;2023-09-18T10:34:21;0.00;;;0.00;;
64282;SDS011;50497;50.720;-2.084;2023-09-18T10:36:48;0.00;;;0.00;;
64282;SDS011;50497;50.720;-2.084;2023-09-18T10:39:15;0.10;;;0.10;;
64282;SDS011;50497;50.720;-2.084;2023-09-18T10:41:53;0.10;;;0.10;;
64282;SDS011;50497;50.720;-2.084;2023-09-18T10:44:19;0.00;;;0.00;;
64282;SDS011;50497;50.720;-2.084;2023-09-18T10:46:48;0.00;;;0.00;;
64282;SDS011;50497;50.720;-2.084;2023-09-18T10:49:16;0.00;;;0.00;;
64282;SDS011;50497;50.720;-2.084;2023-09-18T10:51:43;0.00;;;0.00;;
64282;SDS011;50497;50.720;-2.084;2023-09-18T10:56:35;0.00;;;0.00;;
64282;SDS011;50497;50.720;-2.084;2023-09-18T11:01:31;0.10;;;0.10;;
64282;SDS011;50497;50.720;-2.084;2023-09-18T11:03:59;0.00;;;0.00;;
64282;SDS011;50497;50.720;-2.084;2023-09-18T11:06:27;0.00;;;0.00;;
64282;SDS011;50497;50.720;-2.084;2023-09-18T11:09:01;0.00;;;0.00;;
64282;SDS011;50497;50.720;-2.084;2023-09-18T11:11:29;0.00;;;0.00;;
64282;SDS011;50497;50.720;-2.084;2023-09-18T11:13:58;0.00;;;0.00;;
64282;SDS011;50497;50.720;-2.084;2023-09-18T11:18:53;0.00;;;0.00;;
64282;SDS011;50497;50.720;-2.084;2023-09-18T11:21:31;0.00;;;0.00;;
64282;SDS011;50497;50.720;-2.084;2023-09-18T11:26:32;0.00;;;0.00;;
64282;SDS011;50497;50.720;-2.084;2023-09-18T11:28:59;0.00;;;0.00;;
64282;SDS011;50497;50.720;-2.084;2023-09-18T11:31:48;0.00;;;0.00;;
64282;SDS011;50497;50.720;-2.084;2023-09-18T11:34:22;0.00;;;0.00;;
64282;SDS011;50497;50.720;-2.084;2023-09-18T11:36:53;0.00;;;0.00;;
64282;SDS011;50497;50.720;-2.084;2023-09-18T11:42:20;0.00;;;0.00;;
64282;SDS011;50497;50.720;-2.084;2023-09-18T11:44:53;0.00;;;0.00;;
64282;SDS011;50497;50.720;-2.084;2023-09-18T11:47:23;0.00;;;0.00;;
64282;SDS011;50497;50.720;-2.084;2023-09-18T11:52:20;0.00;;;0.00;;
64282;SDS011;50497;50.720;-2.084;2023-09-18T11:54:46;0.00;;;0.00;;
64282;SDS011;50497;50.720;-2.084;2023-09-18T11:57:13;0.00;;;0.00;;
64282;SDS011;50497;50.720;-2.084;2023-09-18T11:59:40;0.00;;;0.00;;
64282;SDS011;50497;50.720;-2.084;2023-09-18T12:02:07;0.00;;;0.00;;
64282;SDS011;50497;50.720;-2.084;2023-09-18T12:04:33;0.00;;;0.00;;
64282;SDS011;50497;50.720;-2.084;2023-09-18T12:07:00;0.10;;;0.10;;
64282;SDS011;50497;50.720;-2.084;2023-09-18T12:09:28;0.00;;;0.00;;
64282;SDS011;50497;50.720;-2.084;2023-09-18T12:11:54;0.00;;;0.00;;
64282;SDS011;50497;50.720;-2.084;2023-09-18T12:14:22;0.00;;;0.00;;
64282;SDS011;50497;50.720;-2.084;2023-09-18T12:16:47;0.20;;;0.20;;
64282;SDS011;50497;50.720;-2.084;2023-09-18T12:19:18;0.00;;;0.00;;
64282;SDS011;50497;50.720;-2.084;2023-09-18T12:21:47;0.00;;;0.00;;
64282;SDS011;50497;50.720;-2.084;2023-09-18T12:24:14;0.00;;;0.00;;
64282;SDS011;50497;50.720;-2.084;2023-09-18T12:26:40;0.00;;;0.00;;
64282;SDS011;50497;50.720;-2.084;2023-09-18T12:29:06;0.00;;;0.00;;
64282;SDS011;50497;50.720;-2.084;2023-09-18T12:31:32;0.00;;;0.00;;
64282;SDS011;50497;50.720;-2.084;2023-09-18T12:36:24;0.00;;;0.00;;
64282;SDS011;50497;50.720;-2.084;2023-09-18T12:41:25;0.30;;;0.30;;
64282;SDS011;50497;50.720;-2.084;2023-09-18T12:46:16;0.10;;;0.10;;
64282;SDS011;50497;50.720;-2.084;2023-09-18T12:48:44;0.00;;;0.00;;
64282;SDS011;50497;50.720;-2.084;2023-09-18T12:51:12;0.00;;;0.00;;
64282;SDS011;50497;50.720;-2.084;2023-09-18T12:53:39;0.00;;;0.00;;
64282;SDS011;50497;50.720;-2.084;2023-09-18T12:56:09;0.00;;;0.00;;
64282;SDS011;50497;50.720;-2.084;2023-09-18T12:58:35;0.00;;;0.00;;
64282;SDS011;50497;50.720;-2.084;2023-09-18T13:01:05;0.00;;;0.00;;
64282;SDS011;50497;50.720;-2.084;2023-09-18T13:03:43;0.00;;;0.00;;
64282;SDS011;50497;50.720;-2.084;2023-09-18T13:06:15;0.00;;;0.00;;
64282;SDS011;50497;50.720;-2.084;2023-09-18T13:08:45;0.00;;;0.00;;
64282;SDS011;50497;50.720;-2.084;2023-09-18T13:11:12;0.00;;;0.00;;
64282;SDS011;50497;50.720;-2.084;2023-09-18T13:13:39;0.00;;;0.00;;
64282;SDS011;50497;50.720;-2.084;2023-09-18T13:16:06;0.00;;;0.00;;
64282;SDS011;50497;50.720;-2.084;2023-09-18T13:18:33;0.00;;;0.00;;
64282;SDS011;50497;50.720;-2.084;2023-09-18T13:23:28;0.00;;;0.00;;
64282;SDS011;50497;50.720;-2.084;2023-09-18T13:25:58;0.00;;;0.00;;
64282;SDS011;50497;50.720;-2.084;2023-09-18T13:28:24;0.00;;;0.00;;
64282;SDS011;50497;50.720;-2.084;2023-09-18T13:33:16;0.00;;;0.00;;
64282;SDS011;50497;50.720;-2.084;2023-09-18T13:38:08;0.00;;;0.00;;
64282;SDS011;50497;50.720;-2.084;2023-09-18T13:40:36;0.00;;;0.00;;
64282;SDS011;50497;50.720;-2.084;2023-09-18T13:43:02;0.00;;;0.00;;
64282;SDS011;50497;50.720;-2.084;2023-09-18T13:45:31;0.00;;;0.00;;
64282;SDS011;50497;50.720;-2.084;2023-09-18T13:47:57;0.00;;;0.00;;
64282;SDS011;50497;50.720;-2.084;2023-09-18T13:50:24;0.00;;;0.00;;
64282;SDS011;50497;50.720;-2.084;2023-09-18T13:52:49;0.00;;;0.00;;
64282;SDS011;50497;50.720;-2.084;2023-09-18T13:55:14;0.00;;;0.00;;
64282;SDS011;50497;50.720;-2.084;2023-09-18T14:00:05;0.00;;;0.00;;
64282;SDS011;50497;50.720;-2.084;2023-09-18T14:02:34;0.00;;;0.00;;
64282;SDS011;50497;50.720;-2.084;2023-09-18T14:04:59;0.00;;;0.00;;
64282;SDS011;50497;50.720;-2.084;2023-09-18T14:07:25;0.00;;;0.00;;
64282;SDS011;50497;50.720;-2.084;2023-09-18T14:12:15;0.00;;;0.00;;
64282;SDS011;50497;50.720;-2.084;2023-09-18T14:14:41;0.00;;;0.00;;
64282;SDS011;50497;50.720;-2.084;2023-09-18T14:17:08;0.00;;;0.00;;
64282;SDS011;50497;50.720;-2.084;2023-09-18T14:19:34;0.00;;;0.00;;
64282;SDS011;50497;50.720;-2.084;2023-09-18T14:22:00;0.00;;;0.00;;
64282;SDS011;50497;50.720;-2.084;2023-09-18T14:24:30;0.00;;;0.00;;
64282;SDS011;50497;50.720;-2.084;2023-09-18T14:26:56;0.00;;;0.00;;
64282;SDS011;50497;50.720;-2.084;2023-09-18T14:31:46;0.00;;;0.00;;
64282;SDS011;50497;50.720;-2.084;2023-09-18T14:34:12;0.00;;;0.00;;
64282;SDS011;50497;50.720;-2.084;2023-09-18T14:39:04;0.00;;;0.00;;
64282;SDS011;50497;50.720;-2.084;2023-09-18T14:41:34;0.00;;;0.00;;
64282;SDS011;50497;50.720;-2.084;2023-09-18T14:44:00;0.00;;;0.00;;
64282;SDS011;50497;50.720;-2.084;2023-09-18T14:48:51;0.00;;;0.00;;
64282;SDS011;50497;50.720;-2.084;2023-09-18T14:51:16;0.00;;;0.00;;
64282;SDS011;50497;50.720;-2.084;2023-09-18T14:53:43;0.00;;;0.00;;
64282;SDS011;50497;50.720;-2.084;2023-09-18T14:56:08;0.00;;;0.00;;
64282;SDS011;50497;50.720;-2.084;2023-09-18T14:58:34;0.00;;;0.00;;
64282;SDS011;50497;50.720;-2.084;2023-09-18T15:00:59;0.00;;;0.00;;
64282;SDS011;50497;50.720;-2.084;2023-09-18T15:03:25;0.00;;;0.00;;
64282;SDS011;50497;50.720;-2.084;2023-09-18T15:05:50;0.00;;;0.00;;
64282;SDS011;50497;50.720;-2.084;2023-09-18T15:08:17;0.00;;;0.00;;
64282;SDS011;50497;50.720;-2.084;2023-09-18T15:10:44;0.00;;;0.00;;
64282;SDS011;50497;50.720;-2.084;2023-09-18T15:13:13;0.00;;;0.00;;
64282;SDS011;50497;50.720;-2.084;2023-09-18T15:15:41;0.00;;;0.00;;
64282;SDS011;50497;50.720;-2.084;2023-09-18T15:20:33;0.00;;;0.00;;
64282;SDS011;50497;50.720;-2.084;2023-09-18T15:25:24;0.00;;;0.00;;
64282;SDS011;50497;50.720;-2.084;2023-09-18T15:30:15;0.00;;;0.00;;
64282;SDS011;50497;50.720;-2.084;2023-09-18T15:35:19;0.00;;;0.00;;
64282;SDS011;50497;50.720;-2.084;2023-09-18T15:37:45;0.00;;;0.00;;
64282;SDS011;50497;50.720;-2.084;2023-09-18T15:42:38;0.00;;;0.00;;
64282;SDS011;50497;50.720;-2.084;2023-09-18T15:47:32;0.00;;;0.00;;
64282;SDS011;50497;50.720;-2.084;2023-09-18T15:49:58;0.00;;;0.00;;
64282;SDS011;50497;50.720;-2.084;2023-09-18T15:52:24;0.00;;;0.00;;
64282;SDS011;50497;50.720;-2.084;2023-09-18T15:54:50;0.00;;;0.00;;
64282;SDS011;50497;50.720;-2.084;2023-09-18T15:57:15;0.00;;;0.00;;
64282;SDS011;50497;50.720;-2.084;2023-09-18T15:59:42;0.00;;;0.00;;
64282;SDS011;50497;50.720;-2.084;2023-09-18T16:02:07;0.00;;;0.00;;
64282;SDS011;50497;50.720;-2.084;2023-09-18T16:04:33;0.00;;;0.00;;
64282;SDS011;50497;50.720;-2.084;2023-09-18T16:07:00;0.00;;;0.00;;
64282;SDS011;50497;50.720;-2.084;2023-09-18T16:09:26;0.00;;;0.00;;
64282;SDS011;50497;50.720;-2.084;2023-09-18T16:11:51;0.00;;;0.00;;
64282;SDS011;50497;50.720;-2.084;2023-09-18T16:14:17;0.00;;;0.00;;
64282;SDS011;50497;50.720;-2.084;2023-09-18T16:16:45;0.00;;;0.00;;
64282;SDS011;50497;50.720;-2.084;2023-09-18T16:19:11;0.00;;;0.00;;
64282;SDS011;50497;50.720;-2.084;2023-09-18T16:21:36;0.00;;;0.00;;
64282;SDS011;50497;50.720;-2.084;2023-09-18T16:24:01;0.00;;;0.00;;
64282;SDS011;50497;50.720;-2.084;2023-09-18T16:26:31;0.00;;;0.00;;
64282;SDS011;50497;50.720;-2.084;2023-09-18T16:28:59;0.00;;;0.00;;
64282;SDS011;50497;50.720;-2.084;2023-09-18T16:31:25;0.10;;;0.10;;
64282;SDS011;50497;50.720;-2.084;2023-09-18T16:33:51;0.00;;;0.00;;
64282;SDS011;50497;50.720;-2.084;2023-09-18T16:36:17;0.00;;;0.00;;
64282;SDS011;50497;50.720;-2.084;2023-09-18T16:38:42;0.00;;;0.00;;
64282;SDS011;50497;50.720;-2.084;2023-09-18T16:41:09;0.00;;;0.00;;
64282;SDS011;50497;50.720;-2.084;2023-09-18T16:43:34;0.00;;;0.00;;
64282;SDS011;50497;50.720;-2.084;2023-09-18T16:46:01;0.00;;;0.00;;
64282;SDS011;50497;50.720;-2.084;2023-09-18T16:48:26;0.00;;;0.00;;
64282;SDS011;50497;50.720;-2.084;2023-09-18T16:50:52;0.00;;;0.00;;
64282;SDS011;50497;50.720;-2.084;2023-09-18T16:53:17;0.00;;;0.00;;
64282;SDS011;50497;50.720;-2.084;2023-09-18T16:55:43;0.00;;;0.00;;
64282;SDS011;50497;50.720;-2.084;2023-09-18T16:58:08;0.00;;;0.00;;
64282;SDS011;50497;50.720;-2.084;2023-09-18T17:00:33;0.00;;;0.00;;
64282;SDS011;50497;50.720;-2.084;2023-09-18T17:02:59;0.00;;;0.00;;
64282;SDS011;50497;50.720;-2.084;2023-09-18T17:05:24;0.00;;;0.00;;